Time;durP1;ratioP1;P1;durP2;ratioP2;P2;SDS_P1;SDS_P2;PMS_P1;PMS_P2;Temp;Humidity;BMP_temperature;BMP_pressure;BME280_temperature;BME280_humidity;BME280_pressure;Samples;Min_cycle;Max_cycle;Signal;HPM_P1;HPM_P2
2022/11/14 03:58:09;;;;;;;45.03;40.67;;;2.70;99.90;;;;;;5343529;23;20505;-76
2022/11/14 04:00:36;;;;;;;48.47;43.43;;;2.60;99.90;;;;;;4931754;29;20468;-74
2022/11/14 04:03:03;;;;;;;52.00;46.80;;;2.60;99.90;;;;;;4933995;29;20869;-76
2022/11/14 04:05:30;;;;;;;50.57;45.50;;;2.70;99.90;;;;;;4933940;29;20457;-75
2022/11/14 04:07:57;;;;;;;49.53;45.10;;;2.70;99.90;;;;;;4933568;29;20464;-74
2022/11/14 04:10:24;;;;;;;51.20;46.43;;;2.70;99.90;;;;;;4933838;29;21235;-75
2022/11/14 04:12:52;;;;;;;52.80;47.40;;;2.80;99.90;;;;;;4933577;29;20489;-76
2022/11/14 04:15:20;;;;;;;48.83;43.93;;;2.70;99.90;;;;;;4933608;29;20453;-76
2022/11/14 04:17:47;;;;;;;45.37;41.30;;;2.70;99.90;;;;;;4933290;29;20456;-76
2022/11/14 04:20:15;;;;;;;44.67;41.13;;;2.70;99.90;;;;;;4933409;29;20819;-76
2022/11/14 04:22:42;;;;;;;43.37;39.63;;;2.80;99.90;;;;;;4933615;29;20454;-76
2022/11/14 04:25:09;;;;;;;42.03;38.53;;;2.70;99.90;;;;;;4933504;29;20851;-76
2022/11/14 04:27:36;;;;;;;40.80;37.53;;;2.70;99.90;;;;;;4933394;29;20512;-77
2022/11/14 04:30:03;;;;;;;43.50;40.10;;;2.60;99.90;;;;;;4933099;29;20453;-76
2022/11/14 04:32:32;;;;;;;44.50;40.87;;;2.60;99.90;;;;;;4932997;29;20521;-75
2022/11/14 04:34:58;;;;;;;44.37;40.57;;;2.60;99.90;;;;;;4933100;29;20453;-76
2022/11/14 04:37:25;;;;;;;44.20;40.40;;;2.60;99.90;;;;;;4933340;29;20813;-74
2022/11/14 04:39:52;;;;;;;42.43;39.23;;;2.70;99.90;;;;;;4932993;29;20807;-76
2022/11/14 04:42:18;;;;;;;44.57;40.80;;;2.60;99.90;;;;;;4932735;29;20449;-76
2022/11/14 04:44:45;;;;;;;43.60;39.87;;;2.60;99.90;;;;;;4932785;29;20702;-75
2022/11/14 04:47:12;;;;;;;44.10;40.17;;;2.60;99.90;;;;;;4932968;29;20463;-76
2022/11/14 04:49:40;;;;;;;42.63;39.23;;;2.60;99.90;;;;;;4933118;29;20468;-76
2022/11/14 04:52:07;;;;;;;47.20;43.40;;;2.60;99.90;;;;;;4932837;29;21186;-77
2022/11/14 04:54:34;;;;;;;44.33;40.60;;;2.50;99.90;;;;;;4932763;29;20454;-77
2022/11/14 04:57:00;;;;;;;44.13;40.83;;;2.50;99.90;;;;;;4931807;29;20485;-77
2022/11/14 04:59:27;;;;;;;45.63;41.83;;;2.50;99.90;;;;;;4932230;29;20809;-76
2022/11/14 05:01:54;;;;;;;46.33;42.53;;;2.70;99.90;;;;;;4932845;29;20456;-77
2022/11/14 05:04:20;;;;;;;47.13;43.03;;;2.50;99.90;;;;;;4932593;29;20463;-77
2022/11/14 05:06:48;;;;;;;46.57;42.30;;;2.50;99.90;;;;;;4932768;29;20975;-76
2022/11/14 05:09:15;;;;;;;42.97;39.30;;;2.50;99.90;;;;;;4932712;29;20626;-76
2022/11/14 05:11:42;;;;;;;44.37;40.60;;;2.50;99.90;;;;;;4932795;29;20501;-76
2022/11/14 05:14:09;;;;;;;44.43;40.73;;;2.60;99.90;;;;;;4933518;29;20750;-77
2022/11/14 05:16:35;;;;;;;45.33;41.23;;;2.60;99.90;;;;;;4932869;29;20464;-78
2022/11/14 05:19:02;;;;;;;42.90;39.50;;;2.70;99.90;;;;;;4936946;29;20453;-76
2022/11/14 05:21:29;;;;;;;39.80;36.67;;;2.70;99.90;;;;;;4933763;29;20457;-76
2022/11/14 05:23:57;;;;;;;45.27;41.63;;;2.70;99.90;;;;;;4935173;29;20455;-77
2022/11/14 05:26:23;;;;;;;43.60;40.17;;;2.70;99.90;;;;;;4933974;29;20449;-76
2022/11/14 05:28:50;;;;;;;46.17;42.37;;;2.70;99.90;;;;;;4931884;29;20464;-77
2022/11/14 05:31:18;;;;;;;44.77;40.43;;;2.70;99.90;;;;;;4933188;29;20464;-77
2022/11/14 05:33:45;;;;;;;41.53;38.30;;;2.70;99.90;;;;;;4931857;29;20485;-77
2022/11/14 05:36:15;;;;;;;45.93;41.93;;;2.70;99.90;;;;;;4931795;29;20454;-77
2022/11/14 05:38:42;;;;;;;46.23;42.43;;;2.80;99.90;;;;;;4932262;29;20456;-77
2022/11/14 05:41:12;;;;;;;46.90;42.80;;;2.70;99.90;;;;;;4932052;29;20962;-76
2022/11/14 05:43:38;;;;;;;45.43;41.80;;;2.70;99.90;;;;;;4932160;29;20819;-77
2022/11/14 05:46:07;;;;;;;44.20;40.77;;;2.70;99.90;;;;;;4931912;29;20450;-76
2022/11/14 05:48:34;;;;;;;45.87;42.27;;;2.80;99.90;;;;;;4932215;29;20456;-77
2022/11/14 05:51:02;;;;;;;43.10;39.47;;;2.80;99.90;;;;;;4931979;29;20553;-76
2022/11/14 05:53:30;;;;;;;44.20;40.30;;;2.80;99.90;;;;;;4931962;29;20485;-77
2022/11/14 05:56:00;;;;;;;43.33;39.70;;;2.80;99.90;;;;;;4932472;29;20568;-77
2022/11/14 05:58:28;;;;;;;46.30;42.50;;;2.80;99.90;;;;;;4932254;29;20477;-77
2022/11/14 06:01:02;;;;;;;42.00;39.00;;;2.90;99.90;;;;;;4932171;29;20445;-76
2022/11/14 06:03:31;;;;;;;42.10;38.73;;;2.90;99.90;;;;;;4931903;29;20453;-77
2022/11/14 06:06:00;;;;;;;43.93;40.30;;;2.90;99.90;;;;;;4932075;29;20815;-77
2022/11/14 06:08:28;;;;;;;40.67;37.47;;;3.10;99.90;;;;;;4932294;29;20450;-77
2022/11/14 06:10:54;;;;;;;46.30;42.37;;;3.00;99.90;;;;;;4935831;29;20528;-78
2022/11/14 06:13:23;;;;;;;44.97;41.00;;;3.00;99.90;;;;;;4935955;29;20491;-76
2022/11/14 06:15:51;;;;;;;47.80;44.10;;;3.10;99.90;;;;;;4935710;29;20460;-79
2022/11/14 06:18:17;;;;;;;45.00;41.63;;;3.10;99.90;;;;;;4934927;29;20613;-78
2022/11/14 06:20:44;;;;;;;44.77;41.00;;;3.20;99.90;;;;;;4934889;29;20457;-79
2022/11/14 06:23:11;;;;;;;44.73;41.30;;;3.20;99.90;;;;;;4935584;29;20448;-78
2022/11/14 06:25:38;;;;;;;45.37;41.97;;;3.30;99.90;;;;;;4935438;29;20445;-81
2022/11/14 06:28:05;;;;;;;46.23;42.37;;;3.30;99.90;;;;;;4935303;29;20456;-78
2022/11/14 06:30:31;;;;;;;45.17;41.33;;;3.40;99.90;;;;;;4935765;29;20463;-78
2022/11/14 06:32:59;;;;;;;49.27;44.90;;;3.40;99.90;;;;;;4935259;29;20494;-78
2022/11/14 06:35:27;;;;;;;48.67;44.27;;;3.40;99.90;;;;;;4935437;29;20464;-79
2022/11/14 06:37:54;;;;;;;47.80;43.60;;;3.40;99.90;;;;;;4935508;29;20455;-80
2022/11/14 06:40:21;;;;;;;47.67;43.53;;;3.50;99.90;;;;;;4935773;29;20452;-82
2022/11/14 06:42:47;;;;;;;48.20;43.70;;;3.50;99.90;;;;;;4935849;29;20462;-82
2022/11/14 06:45:14;;;;;;;49.77;45.07;;;3.50;99.90;;;;;;4935481;29;20481;-82
2022/11/14 06:47:41;;;;;;;48.60;44.30;;;3.60;99.90;;;;;;4935403;29;20477;-83
2022/11/14 06:50:10;;;;;;;47.30;43.20;;;3.60;99.90;;;;;;4935371;29;20816;-82
2022/11/14 06:52:36;;;;;;;49.27;44.80;;;3.70;99.90;;;;;;4935280;29;20492;-81
2022/11/14 06:55:03;;;;;;;46.43;42.90;;;3.80;99.90;;;;;;4935024;29;20476;-81
2022/11/14 06:57:30;;;;;;;48.13;44.50;;;3.80;99.90;;;;;;4934709;29;20816;-80
2022/11/14 06:59:58;;;;;;;49.17;44.70;;;3.80;99.90;;;;;;4935619;29;20449;-88
2022/11/14 07:02:24;;;;;;;44.83;41.47;;;3.80;99.90;;;;;;4935185;29;20450;-82
2022/11/14 07:04:51;;;;;;;44.00;40.20;;;3.80;99.90;;;;;;4935109;29;20455;-85
2022/11/14 07:07:21;;;;;;;45.47;41.07;;;3.80;99.90;;;;;;4935369;29;20453;-86
2022/11/14 07:09:47;;;;;;;45.83;41.80;;;4.00;99.90;;;;;;4935045;29;20759;-83
2022/11/14 07:12:14;;;;;;;40.83;37.57;;;4.10;99.90;;;;;;4934814;29;20495;-84
2022/11/14 07:14:41;;;;;;;41.07;37.47;;;4.10;99.90;;;;;;4935010;29;20462;-87
2022/11/14 07:17:08;;;;;;;44.67;40.80;;;4.30;99.90;;;;;;4935069;29;20455;-83
2022/11/14 07:19:35;;;;;;;44.60;40.80;;;4.50;99.90;;;;;;4934497;29;20467;-81
2022/11/14 07:22:02;;;;;;;39.80;36.40;;;4.60;99.90;;;;;;4933770;29;20651;-79
2022/11/14 07:24:30;;;;;;;42.60;38.40;;;4.50;99.90;;;;;;4934519;29;20464;-82
2022/11/14 07:26:57;;;;;;;37.43;34.33;;;4.50;99.90;;;;;;4934501;29;20455;-85
2022/11/14 07:29:24;;;;;;;40.30;36.80;;;4.50;99.90;;;;;;4935095;29;20457;-84
2022/11/14 07:31:50;;;;;;;39.70;36.27;;;4.50;99.90;;;;;;4937002;29;20459;-81
2022/11/14 07:34:17;;;;;;;41.83;37.63;;;4.50;99.90;;;;;;4953421;29;20499;-80
2022/11/14 07:36:44;;;;;;;39.93;36.50;;;4.40;99.90;;;;;;4953707;29;20460;-83
2022/11/14 07:39:11;;;;;;;37.73;34.17;;;4.40;99.90;;;;;;4954097;29;20455;-84
2022/11/14 07:41:40;;;;;;;38.70;35.13;;;4.40;99.90;;;;;;4955019;29;20455;-80
2022/11/14 07:44:07;;;;;;;39.03;35.43;;;4.40;99.90;;;;;;4953598;29;20448;-79
2022/11/14 07:46:33;;;;;;;34.57;31.47;;;4.40;99.90;;;;;;4953596;29;20453;-79
2022/11/14 07:49:00;;;;;;;37.83;34.67;;;4.40;99.90;;;;;;4953594;29;20819;-79
2022/11/14 07:51:27;;;;;;;34.97;32.07;;;4.40;99.90;;;;;;4953669;29;20810;-79
2022/11/14 07:54:04;;;;;;;35.00;32.40;;;4.50;99.90;;;;;;4953980;29;20497;-78
2022/11/14 07:56:31;;;;;;;35.13;32.10;;;4.60;99.90;;;;;;4934429;29;21151;-80
2022/11/14 07:58:59;;;;;;;34.87;31.50;;;4.70;99.90;;;;;;4952214;29;20499;-79
2022/11/14 08:01:25;;;;;;;33.63;30.33;;;4.70;99.90;;;;;;4953083;29;20455;-80
2022/11/14 08:03:52;;;;;;;33.23;30.73;;;4.80;99.90;;;;;;4952899;29;20461;-81
2022/11/14 08:06:19;;;;;;;30.17;27.57;;;4.80;99.90;;;;;;4952718;29;20472;-80
2022/11/14 08:08:46;;;;;;;32.60;30.10;;;4.70;99.90;;;;;;4952498;29;20535;-81
2022/11/14 08:11:12;;;;;;;30.80;28.30;;;4.70;99.90;;;;;;4952489;29;20454;-80
2022/11/14 08:13:39;;;;;;;34.07;31.07;;;4.80;99.90;;;;;;4952663;29;20506;-81
2022/11/14 08:16:10;;;;;;;33.57;30.97;;;4.90;99.90;;;;;;4952457;29;20446;-80
2022/11/14 08:18:36;;;;;;;36.17;33.53;;;5.00;99.90;;;;;;4950861;29;20843;-76
2022/11/14 08:21:04;;;;;;;45.07;41.43;;;5.00;99.90;;;;;;4952230;29;20461;-75
2022/11/14 08:23:31;;;;;;;47.70;43.90;;;5.00;99.90;;;;;;4952283;29;20460;-75
2022/11/14 08:25:58;;;;;;;46.83;42.33;;;5.00;99.90;;;;;;4952146;29;20444;-74
2022/11/14 08:28:25;;;;;;;47.60;44.07;;;4.90;99.90;;;;;;4952469;29;20468;-74
2022/11/14 08:30:52;;;;;;;48.00;44.20;;;4.70;99.90;;;;;;4952499;29;20457;-74
2022/11/14 08:33:20;;;;;;;44.17;40.83;;;4.70;99.90;;;;;;4952268;28;20495;-74
2022/11/14 08:35:47;;;;;;;46.40;42.80;;;4.70;99.90;;;;;;4952423;29;20456;-73
2022/11/14 08:38:14;;;;;;;45.57;42.20;;;4.70;99.90;;;;;;4950882;29;20458;-74
2022/11/14 08:40:41;;;;;;;45.50;42.07;;;4.70;99.90;;;;;;4952474;29;20446;-74
2022/11/14 08:43:10;;;;;;;43.97;40.60;;;4.70;99.90;;;;;;4952471;29;20452;-73
2022/11/14 08:45:37;;;;;;;42.20;39.17;;;4.70;99.90;;;;;;4952523;29;20451;-74
2022/11/14 08:48:04;;;;;;;41.63;38.73;;;4.80;99.90;;;;;;4952007;29;20967;-74
2022/11/14 08:50:32;;;;;;;42.60;39.60;;;4.90;99.90;;;;;;4951834;29;20514;-74
2022/11/14 08:52:59;;;;;;;39.30;36.77;;;5.00;99.90;;;;;;4951741;29;20819;-74
2022/11/14 08:55:26;;;;;;;37.43;34.93;;;5.20;99.90;;;;;;4951824;29;20456;-74
2022/11/14 08:57:53;;;;;;;39.77;36.97;;;5.40;99.90;;;;;;4951710;29;20854;-74
2022/11/14 09:00:21;;;;;;;38.67;36.00;;;5.60;99.90;;;;;;4951680;29;20447;-74
2022/11/14 09:02:48;;;;;;;39.10;36.30;;;5.80;99.90;;;;;;4951662;29;20757;-75
2022/11/14 09:05:14;;;;;;;40.17;37.40;;;5.90;99.90;;;;;;4951515;29;20976;-74
2022/11/14 09:07:42;;;;;;;40.10;37.20;;;6.10;99.90;;;;;;4951680;29;20452;-74
2022/11/14 09:10:10;;;;;;;36.93;34.33;;;6.20;99.90;;;;;;4951657;29;20463;-74
2022/11/14 09:12:36;;;;;;;42.70;39.40;;;6.30;99.90;;;;;;4935583;29;20460;-75
2022/11/14 09:15:03;;;;;;;49.03;45.13;;;6.30;99.90;;;;;;4932299;29;20480;-75
2022/11/14 09:17:30;;;;;;;47.00;43.27;;;6.20;99.90;;;;;;4932263;29;20966;-74
2022/11/14 09:19:57;;;;;;;45.27;41.60;;;6.20;99.90;;;;;;4932282;29;20460;-74
2022/11/14 09:22:23;;;;;;;45.77;42.17;;;6.10;99.90;;;;;;4932347;29;20821;-76
2022/11/14 09:24:51;;;;;;;42.70;39.40;;;6.00;99.90;;;;;;4932118;29;20446;-75
2022/11/14 09:27:18;;;;;;;49.80;45.20;;;6.00;99.90;;;;;;4932025;29;20473;-76
2022/11/14 09:29:45;;;;;;;49.57;45.40;;;5.90;99.90;;;;;;4931825;29;20981;-76
2022/11/14 09:32:12;;;;;;;47.23;43.87;;;5.90;99.90;;;;;;4932301;29;20459;-76
2022/11/14 09:34:41;;;;;;;48.87;45.27;;;5.90;99.90;;;;;;4932176;29;20497;-77
2022/11/14 09:37:08;;;;;;;49.57;45.53;;;5.90;99.90;;;;;;4932275;29;21054;-76
2022/11/14 09:39:39;;;;;;;43.67;40.67;;;5.90;99.90;;;;;;4932266;29;20974;-76
2022/11/14 09:42:19;;;;;;;48.23;44.37;;;5.90;99.90;;;;;;4931972;29;20962;-77
2022/11/14 09:44:57;;;;;;;44.83;41.43;;;5.90;99.90;;;;;;4931645;29;20985;-77
2022/11/14 09:47:28;;;;;;;49.03;44.70;;;6.00;99.90;;;;;;4932447;29;20458;-77
2022/11/14 09:50:01;;;;;;;50.40;46.30;;;6.10;99.90;;;;;;4931975;29;20449;-77
2022/11/14 09:52:34;;;;;;;47.93;44.20;;;6.10;99.90;;;;;;4931955;29;20902;-77
2022/11/14 09:55:10;;;;;;;50.50;46.10;;;6.00;99.90;;;;;;4931737;29;20878;-76
2022/11/14 09:57:40;;;;;;;53.43;49.13;;;6.10;99.90;;;;;;4931651;29;20477;-76
2022/11/14 10:00:57;;;;;;;51.40;47.00;;;6.10;99.90;;;;;;4930641;29;20465;-78
2022/11/14 10:03:36;;;;;;;50.60;46.07;;;6.30;99.90;;;;;;4929335;29;20536;-76
2022/11/14 10:06:21;;;;;;;50.07;46.37;;;6.40;99.90;;;;;;4931359;29;20515;-76
2022/11/14 10:08:59;;;;;;;49.97;46.20;;;6.40;99.90;;;;;;4931288;29;20464;-78
2022/11/14 10:11:33;;;;;;;49.60;45.90;;;6.50;99.90;;;;;;4931590;29;20446;-77
2022/11/14 10:14:23;;;;;;;51.00;47.20;;;6.60;99.90;;;;;;4931295;29;20851;-78
2022/11/14 10:16:59;;;;;;;52.73;48.40;;;6.70;99.90;;;;;;4931521;29;20458;-78
2022/11/14 10:19:32;;;;;;;48.50;44.70;;;7.00;99.90;;;;;;4931601;29;20464;-77
2022/11/14 10:22:11;;;;;;;48.60;44.90;;;7.10;99.90;;;;;;4931261;29;20974;-77
2022/11/14 10:24:53;;;;;;;48.50;44.70;;;7.30;99.90;;;;;;4931801;29;20943;-79
2022/11/14 10:27:26;;;;;;;49.10;45.30;;;7.40;99.90;;;;;;4931174;29;20449;-77
2022/11/14 10:30:04;;;;;;;52.57;48.17;;;7.60;99.90;;;;;;4931563;29;20453;-79
2022/11/14 10:32:47;;;;;;;49.63;45.90;;;7.60;99.90;;;;;;4931664;29;20503;-80
2022/11/14 10:35:18;;;;;;;46.43;43.00;;;7.70;99.90;;;;;;4931433;29;20485;-80
2022/11/14 10:37:53;;;;;;;45.20;41.70;;;7.70;99.90;;;;;;4931343;29;20461;-81
2022/11/14 10:41:33;;;;;;;47.10;43.40;;;7.80;99.90;;;;;;4931439;29;20459;-80
2022/11/14 10:44:00;;;;;;;43.90;40.63;;;8.00;99.90;;;;;;4916715;29;20836;-81
2022/11/14 10:46:33;;;;;;;41.70;38.50;;;8.20;99.90;;;;;;4931161;29;20536;-80
2022/11/14 10:49:00;;;;;;;46.93;43.50;;;8.20;99.90;;;;;;4931108;29;20458;-80
2022/11/14 10:51:32;;;;;;;40.20;37.50;;;8.30;99.90;;;;;;4931096;29;20967;-79
2022/11/14 10:54:06;;;;;;;39.60;36.63;;;8.40;99.90;;;;;;4930923;29;20486;-79
2022/11/14 10:56:33;;;;;;;38.60;35.60;;;8.40;99.90;;;;;;4934355;29;20956;-79
2022/11/14 10:58:59;;;;;;;38.37;35.30;;;8.50;99.90;;;;;;4934842;29;20481;-76
2022/11/14 11:01:36;;;;;;;37.70;34.90;;;8.50;99.90;;;;;;4935279;29;20803;-77
2022/11/14 11:04:19;;;;;;;36.13;33.40;;;8.60;99.90;;;;;;4935274;29;20453;-76
2022/11/14 11:06:46;;;;;;;37.40;34.40;;;8.70;99.90;;;;;;4932563;29;21047;-78
2022/11/14 11:12:01;;;;;;;31.47;28.90;;;9.10;99.90;;;;;;4915894;29;20494;-79
2022/11/14 11:14:29;;;;;;;33.77;30.67;;;9.20;99.90;;;;;;4915484;29;20581;-79
2022/11/14 11:17:19;;;;;;;29.67;27.23;;;9.60;99.90;;;;;;4916165;29;20593;-82
2022/11/14 11:19:47;;;;;;;26.60;24.00;;;9.90;99.90;;;;;;4916094;29;20451;-84
2022/11/14 11:22:26;;;;;;;26.07;24.20;;;10.20;99.90;;;;;;4915790;29;20469;-80
2022/11/14 11:24:53;;;;;;;22.43;21.00;;;10.50;99.90;;;;;;4915748;29;20469;-81
2022/11/14 11:27:22;;;;;;;22.50;20.93;;;10.90;99.90;;;;;;4915016;29;20460;-81
2022/11/14 11:30:03;;;;;;;20.33;18.67;;;11.90;99.90;;;;;;4915476;29;20834;-87
2022/11/14 11:32:31;;;;;;;17.03;15.90;;;12.80;99.90;;;;;;4915834;29;20489;-85
2022/11/14 11:35:11;;;;;;;19.60;18.10;;;13.00;99.90;;;;;;4915334;29;20486;-87
2022/11/14 11:37:44;;;;;;;18.90;17.70;;;12.90;99.90;;;;;;4917444;29;20814;-90
2022/11/14 11:40:16;;;;;;;18.90;17.60;;;12.70;99.90;;;;;;4932011;29;20969;-87
2022/11/14 11:42:49;;;;;;;22.27;20.77;;;12.60;99.90;;;;;;4915528;29;20465;-88
2022/11/14 11:45:17;;;;;;;18.03;16.73;;;12.90;99.90;;;;;;4918463;29;20473;-87
2022/11/14 11:47:51;;;;;;;18.57;17.37;;;12.80;99.90;;;;;;4914618;29;20937;-86
2022/11/14 11:50:20;;;;;;;18.63;17.43;;;12.40;99.90;;;;;;4914570;29;20455;-86
2022/11/14 11:52:54;;;;;;;22.73;21.10;;;12.60;99.90;;;;;;4915703;29;20460;-86
2022/11/14 11:55:25;;;;;;;19.47;18.27;;;12.00;99.90;;;;;;4915142;29;20486;-85
2022/11/14 11:58:01;;;;;;;18.60;16.90;;;12.00;99.90;;;;;;4915016;29;20996;-89
2022/11/14 12:00:28;;;;;;;18.90;17.53;;;12.10;99.90;;;;;;4914685;29;20949;-88
2022/11/14 12:02:57;;;;;;;16.13;15.33;;;12.20;99.90;;;;;;4914687;29;20482;-87
2022/11/14 12:05:31;;;;;;;17.10;16.20;;;12.40;99.90;;;;;;4914130;29;20447;-86
2022/11/14 12:08:03;;;;;;;16.80;16.00;;;12.30;99.90;;;;;;4913484;29;20457;-86
2022/11/14 12:10:35;;;;;;;17.90;16.90;;;12.60;99.90;;;;;;4914191;29;20461;-88
2022/11/14 12:13:27;;;;;;;18.63;17.50;;;12.40;99.90;;;;;;4915532;29;20454;-87
2022/11/14 12:16:08;;;;;;;17.90;16.90;;;12.40;99.90;;;;;;4914925;29;20474;-89
2022/11/14 12:18:55;;;;;;;18.20;17.00;;;12.40;99.90;;;;;;4916063;29;20873;-91
2022/11/14 12:21:35;;;;;;;14.60;13.90;;;12.50;99.90;;;;;;4922590;29;20473;-93
2022/11/14 12:24:53;;;;;;;13.70;13.00;;;12.60;99.90;;;;;;4927560;29;20717;-94
2022/11/14 12:27:36;;;;;;;13.10;12.50;;;12.70;99.90;;;;;;4888826;29;20458;-92
2022/11/14 12:30:12;;;;;;;14.23;13.43;;;12.80;99.90;;;;;;4918178;29;20461;-91
2022/11/14 12:32:43;;;;;;;14.10;13.30;;;13.00;99.90;;;;;;4916303;29;20454;-90
2022/11/14 12:35:20;;;;;;;13.60;13.00;;;13.00;99.90;;;;;;4914868;29;20856;-90
2022/11/14 12:37:50;;;;;;;13.40;12.80;;;13.20;99.90;;;;;;4914445;29;20454;-87
2022/11/14 12:40:25;;;;;;;12.63;11.93;;;13.40;99.90;;;;;;4913587;29;21024;-87
2022/11/14 12:42:52;;;;;;;12.60;12.10;;;14.00;99.90;;;;;;4914065;29;20473;-86
2022/11/14 12:45:59;;;;;;;13.30;12.77;;;14.20;99.90;;;;;;4913969;29;20458;-85
2022/11/14 12:48:35;;;;;;;13.27;12.70;;;14.00;99.90;;;;;;4914059;29;20457;-85
2022/11/14 12:51:05;;;;;;;13.03;12.53;;;13.80;99.90;;;;;;4913695;29;20446;-85
2022/11/14 12:53:41;;;;;;;12.97;12.20;;;13.60;99.90;;;;;;4913636;29;20839;-86
2022/11/14 12:56:50;;;;;;;12.87;12.30;;;13.60;99.90;;;;;;4913644;29;20826;-84
2022/11/14 12:59:28;;;;;;;14.53;13.67;;;13.60;99.90;;;;;;4884631;29;20489;-84
2022/11/14 13:02:18;;;;;;;12.37;11.77;;;13.70;99.90;;;;;;4894693;29;20832;-85
2022/11/14 13:04:59;;;;;;;13.27;11.93;;;13.80;99.90;;;;;;4894812;29;20474;-84
2022/11/14 13:07:40;;;;;;;12.63;12.10;;;13.90;99.90;;;;;;4894832;29;20494;-85
2022/11/14 13:10:15;;;;;;;13.23;12.60;;;14.00;99.90;;;;;;4894632;29;20459;-84
2022/11/14 13:23:57;;;;;;;13.53;12.83;;;14.20;99.90;;;;;;4894446;29;20997;-84
2022/11/14 13:26:54;;;;;;;13.03;12.53;;;14.20;99.90;;;;;;4894732;29;20455;-85
2022/11/14 13:30:06;;;;;;;13.47;12.87;;;14.30;99.90;;;;;;4872173;29;20470;-86
2022/11/14 13:33:03;;;;;;;11.67;11.27;;;14.30;99.90;;;;;;4894274;29;20608;-84
2022/11/14 13:35:40;;;;;;;14.77;13.90;;;14.30;99.90;;;;;;4894193;29;20495;-84
2022/11/14 13:38:34;;;;;;;13.77;12.97;;;14.30;99.90;;;;;;4894323;29;20451;-83
2022/11/14 13:41:22;;;;;;;13.80;13.13;;;14.30;99.90;;;;;;4875980;29;20542;-83
2022/11/14 13:44:01;;;;;;;14.27;13.53;;;14.40;99.90;;;;;;4894253;29;20880;-83
2022/11/14 13:46:42;;;;;;;14.00;13.40;;;14.40;99.90;;;;;;4894223;29;20458;-84
2022/11/14 13:49:23;;;;;;;14.37;13.67;;;14.40;99.90;;;;;;4905956;29;20988;-82
2022/11/14 13:51:52;;;;;;;13.33;12.53;;;14.50;99.90;;;;;;4894634;29;20806;-83
2022/11/14 13:54:19;;;;;;;13.50;12.90;;;14.50;99.90;;;;;;4893984;29;20482;-83
2022/11/14 13:56:58;;;;;;;13.43;12.83;;;14.50;99.90;;;;;;4895027;29;20475;-83
2022/11/14 13:59:45;;;;;;;14.13;13.23;;;14.50;99.90;;;;;;4913457;29;20497;-84
2022/11/14 14:02:42;;;;;;;13.20;12.43;;;14.40;99.90;;;;;;4913662;29;20466;-83
2022/11/14 14:05:20;;;;;;;12.83;12.33;;;14.40;99.90;;;;;;4913867;29;20450;-84
2022/11/14 14:08:01;;;;;;;12.93;12.20;;;14.40;99.90;;;;;;4913480;29;20527;-82
2022/11/14 14:10:38;;;;;;;14.00;13.20;;;14.40;99.90;;;;;;4913313;29;20454;-84
2022/11/14 14:13:31;;;;;;;13.77;13.07;;;14.50;99.90;;;;;;4913276;29;20462;-84
2022/11/14 14:16:05;;;;;;;12.77;12.17;;;14.50;99.90;;;;;;4913268;29;20497;-84
2022/11/14 14:18:53;;;;;;;14.30;13.60;;;14.50;99.90;;;;;;4913679;29;20450;-84
2022/11/14 14:21:32;;;;;;;13.23;12.63;;;14.50;99.90;;;;;;4908627;29;20486;-86
2022/11/14 14:24:09;;;;;;;13.60;12.90;;;14.50;99.90;;;;;;4913905;29;20461;-85
2022/11/14 14:26:47;;;;;;;14.00;13.30;;;14.50;99.90;;;;;;4913414;29;20817;-86
2022/11/14 14:29:24;;;;;;;13.70;13.20;;;14.40;99.90;;;;;;4917768;29;20469;-86
2022/11/14 14:31:51;;;;;;;13.40;12.30;;;14.40;99.90;;;;;;4928901;29;20452;-87
2022/11/14 14:34:22;;;;;;;13.57;12.87;;;14.40;99.90;;;;;;4921436;29;21102;-86
2022/11/14 14:36:50;;;;;;;13.90;13.20;;;14.40;99.90;;;;;;4917815;29;20477;-86
2022/11/14 14:39:19;;;;;;;15.07;14.20;;;14.30;99.90;;;;;;4935895;29;20458;-86
2022/11/14 14:41:46;;;;;;;14.53;13.50;;;14.40;99.90;;;;;;4935753;29;20563;-85
2022/11/14 14:44:22;;;;;;;16.40;15.40;;;14.40;99.90;;;;;;4935862;29;20456;-85
2022/11/14 14:46:49;;;;;;;17.03;15.87;;;14.40;99.90;;;;;;4923268;29;20450;-85
2022/11/14 14:49:21;;;;;;;14.97;14.07;;;14.40;99.90;;;;;;4916515;29;20458;-86
2022/11/14 14:51:48;;;;;;;18.40;16.97;;;14.30;99.90;;;;;;4916812;29;20465;-86
2022/11/14 14:54:23;;;;;;;17.17;16.17;;;14.30;99.90;;;;;;4916562;29;20457;-86
2022/11/14 14:56:54;;;;;;;16.37;15.47;;;14.30;99.90;;;;;;4916261;29;20511;-85
2022/11/14 14:59:24;;;;;;;15.80;14.90;;;14.20;99.90;;;;;;4928748;29;20497;-85
2022/11/14 15:01:52;;;;;;;15.87;15.10;;;14.10;99.90;;;;;;4935228;29;20461;-85
2022/11/14 15:04:20;;;;;;;13.33;12.53;;;14.00;99.90;;;;;;4919549;29;20517;-86
2022/11/14 15:06:47;;;;;;;15.47;14.57;;;13.80;99.90;;;;;;4914643;29;20450;-84
2022/11/14 15:09:20;;;;;;;16.30;15.37;;;13.70;99.90;;;;;;4916454;29;20535;-80
2022/11/14 15:11:50;;;;;;;16.80;15.83;;;13.70;99.90;;;;;;4923297;29;20812;-82
2022/11/14 15:14:20;;;;;;;19.07;17.67;;;13.70;99.90;;;;;;4924273;29;20462;-82
2022/11/14 15:16:49;;;;;;;19.13;17.80;;;13.70;99.90;;;;;;4924610;29;20450;-83
2022/11/14 15:19:18;;;;;;;18.63;17.20;;;13.70;99.90;;;;;;4924427;29;20451;-83
2022/11/14 15:21:46;;;;;;;17.70;16.57;;;13.60;99.90;;;;;;4924908;29;20448;-83
2022/11/14 15:24:16;;;;;;;16.50;15.30;;;13.50;99.90;;;;;;4926035;29;20445;-84
2022/11/14 15:26:44;;;;;;;18.03;16.63;;;13.50;99.90;;;;;;4925063;29;20953;-84
2022/11/14 15:29:17;;;;;;;15.77;14.90;;;13.60;99.90;;;;;;4924257;29;20553;-84
2022/11/14 15:31:49;;;;;;;16.53;15.63;;;13.60;99.90;;;;;;4924736;29;20445;-85
2022/11/14 15:34:25;;;;;;;16.47;15.23;;;13.60;99.90;;;;;;4926042;29;20447;-84
2022/11/14 15:37:20;;;;;;;19.30;18.17;;;13.60;99.90;;;;;;4927158;29;20453;-84
2022/11/14 15:39:47;;;;;;;19.80;18.33;;;13.50;99.90;;;;;;4925615;29;20442;-84
2022/11/14 15:42:15;;;;;;;16.70;15.00;;;13.40;99.90;;;;;;4922455;29;20463;-84
2022/11/14 15:44:42;;;;;;;18.17;16.90;;;13.40;99.90;;;;;;4926070;29;20451;-84
2022/11/14 15:47:13;;;;;;;19.10;17.80;;;13.30;99.90;;;;;;4938181;29;20448;-83
2022/11/14 15:49:50;;;;;;;17.70;16.70;;;13.10;99.90;;;;;;4925603;29;20457;-84
2022/11/14 15:52:21;;;;;;;20.63;19.23;;;13.00;99.90;;;;;;4924990;29;20439;-83
2022/11/14 15:54:48;;;;;;;22.80;20.93;;;12.80;99.90;;;;;;4926175;29;20505;-84
2022/11/14 15:57:16;;;;;;;22.10;20.87;;;12.80;99.90;;;;;;4925387;29;20481;-83
2022/11/14 15:59:43;;;;;;;21.47;19.97;;;12.60;99.90;;;;;;4919252;29;20878;-83
2022/11/14 16:02:15;;;;;;;19.40;17.90;;;12.60;99.90;;;;;;4935440;29;20454;-83
2022/11/14 16:04:42;;;;;;;20.00;18.80;;;12.40;99.90;;;;;;4935230;29;20836;-84
2022/11/14 16:07:11;;;;;;;17.50;16.50;;;12.30;99.90;;;;;;4935200;29;20546;-84
2022/11/14 16:09:38;;;;;;;17.90;16.47;;;12.30;99.90;;;;;;4935347;29;20457;-83
2022/11/14 16:12:05;;;;;;;16.43;15.47;;;12.20;99.90;;;;;;4934299;29;20456;-84
2022/11/14 16:14:32;;;;;;;17.10;16.10;;;12.20;99.90;;;;;;4930197;29;20473;-83
2022/11/14 16:16:59;;;;;;;18.10;16.63;;;12.10;99.90;;;;;;4928513;29;20449;-85
2022/11/14 16:19:27;;;;;;;16.57;15.57;;;12.10;99.90;;;;;;4919796;29;20973;-84
2022/11/14 16:21:54;;;;;;;16.97;15.90;;;12.10;99.90;;;;;;4917130;29;20454;-84
2022/11/14 16:24:22;;;;;;;17.73;16.33;;;12.00;99.90;;;;;;4933252;29;20551;-87
2022/11/14 16:26:49;;;;;;;18.57;16.80;;;12.00;99.90;;;;;;4923149;29;20461;-85
2022/11/14 16:29:16;;;;;;;17.17;15.87;;;12.00;99.90;;;;;;4926588;29;20446;-85
2022/11/14 16:31:43;;;;;;;17.70;16.60;;;12.00;99.90;;;;;;4925941;29;20446;-85
2022/11/14 16:34:16;;;;;;;18.67;17.57;;;11.90;99.90;;;;;;4926536;29;20438;-84
2022/11/14 16:36:44;;;;;;;18.67;17.50;;;11.80;99.90;;;;;;4931089;29;20891;-83
2022/11/14 16:39:12;;;;;;;18.90;17.90;;;11.70;99.90;;;;;;4936674;29;20458;-83
2022/11/14 16:41:39;;;;;;;16.70;15.30;;;11.70;99.90;;;;;;4936207;29;20457;-82
2022/11/14 16:44:06;;;;;;;16.70;15.80;;;11.50;99.90;;;;;;4923321;29;20514;-83
2022/11/14 16:46:33;;;;;;;15.73;14.93;;;11.50;99.90;;;;;;4918422;29;20446;-82
2022/11/14 16:48:59;;;;;;;17.40;16.40;;;11.40;99.90;;;;;;4916125;29;20454;-83
2022/11/14 16:51:26;;;;;;;16.50;15.60;;;11.30;99.90;;;;;;4917451;29;20454;-82
2022/11/14 16:53:56;;;;;;;15.67;14.90;;;11.30;99.90;;;;;;4921969;29;20461;-83
2022/11/14 16:56:23;;;;;;;16.53;15.47;;;11.30;99.90;;;;;;4917768;29;20494;-83
2022/11/14 16:58:54;;;;;;;16.93;15.90;;;11.30;99.90;;;;;;4914715;29;20486;-83
2022/11/14 17:01:21;;;;;;;16.13;15.30;;;11.30;99.90;;;;;;4915308;29;20647;-82
2022/11/14 17:03:47;;;;;;;15.87;15.07;;;11.30;99.90;;;;;;4915174;29;20454;-82
2022/11/14 17:06:14;;;;;;;15.17;14.27;;;11.30;99.90;;;;;;4914854;29;20450;-83